sensor_id;sensor_type;location;lat;lon;timestamp;P1;durP1;ratioP1;P2;durP2;ratioP2
11338;SDS011;5724;42.684;23.252;2023-01-29T00:01:33;5.23;;;4.73;;
11338;SDS011;5724;42.684;23.252;2023-01-29T00:03:59;9.07;;;7.17;;
11338;SDS011;5724;42.684;23.252;2023-01-29T00:06:24;6.53;;;5.67;;
11338;SDS011;5724;42.684;23.252;2023-01-29T00:08:50;5.60;;;3.90;;
11338;SDS011;5724;42.684;23.252;2023-01-29T00:11:15;5.37;;;3.97;;
11338;SDS011;5724;42.684;23.252;2023-01-29T00:13:41;6.07;;;4.73;;
11338;SDS011;5724;42.684;23.252;2023-01-29T00:16:07;4.40;;;3.90;;
11338;SDS011;5724;42.684;23.252;2023-01-29T00:18:36;6.50;;;5.83;;
11338;SDS011;5724;42.684;23.252;2023-01-29T00:21:03;3.97;;;3.67;;
11338;SDS011;5724;42.684;23.252;2023-01-29T00:23:32;4.47;;;4.07;;
11338;SDS011;5724;42.684;23.252;2023-01-29T00:25:58;6.67;;;5.97;;
11338;SDS011;5724;42.684;23.252;2023-01-29T00:28:24;3.63;;;3.43;;
11338;SDS011;5724;42.684;23.252;2023-01-29T00:30:49;5.17;;;4.77;;
11338;SDS011;5724;42.684;23.252;2023-01-29T00:33:14;6.07;;;5.50;;
11338;SDS011;5724;42.684;23.252;2023-01-29T00:35:40;6.53;;;5.17;;
11338;SDS011;5724;42.684;23.252;2023-01-29T00:38:06;10.53;;;8.57;;
11338;SDS011;5724;42.684;23.252;2023-01-29T00:40:31;14.20;;;10.47;;
11338;SDS011;5724;42.684;23.252;2023-01-29T00:43:17;10.87;;;9.77;;
11338;SDS011;5724;42.684;23.252;2023-01-29T00:46:01;10.10;;;9.10;;
11338;SDS011;5724;42.684;23.252;2023-01-29T00:48:26;10.80;;;9.20;;
11338;SDS011;5724;42.684;23.252;2023-01-29T00:50:51;3.83;;;3.37;;
11338;SDS011;5724;42.684;23.252;2023-01-29T00:53:17;2.63;;;2.43;;
11338;SDS011;5724;42.684;23.252;2023-01-29T00:55:43;4.93;;;4.53;;
11338;SDS011;5724;42.684;23.252;2023-01-29T00:58:09;5.47;;;4.97;;
11338;SDS011;5724;42.684;23.252;2023-01-29T01:00:34;13.53;;;4.27;;
11338;SDS011;5724;42.684;23.252;2023-01-29T01:02:59;4.83;;;4.50;;
11338;SDS011;5724;42.684;23.252;2023-01-29T01:05:30;4.47;;;3.90;;
11338;SDS011;5724;42.684;23.252;2023-01-29T01:07:56;4.50;;;4.20;;
11338;SDS011;5724;42.684;23.252;2023-01-29T01:10:29;6.30;;;3.90;;
11338;SDS011;5724;42.684;23.252;2023-01-29T01:12:57;4.03;;;3.70;;
11338;SDS011;5724;42.684;23.252;2023-01-29T01:15:29;3.43;;;3.17;;
11338;SDS011;5724;42.684;23.252;2023-01-29T01:17:57;5.43;;;4.93;;
11338;SDS011;5724;42.684;23.252;2023-01-29T01:20:25;6.07;;;3.47;;
11338;SDS011;5724;42.684;23.252;2023-01-29T01:22:52;3.67;;;3.37;;
11338;SDS011;5724;42.684;23.252;2023-01-29T01:25:18;4.40;;;3.73;;
11338;SDS011;5724;42.684;23.252;2023-01-29T01:27:44;4.83;;;4.43;;
11338;SDS011;5724;42.684;23.252;2023-01-29T01:30:11;6.30;;;4.17;;
11338;SDS011;5724;42.684;23.252;2023-01-29T01:32:39;6.23;;;5.57;;
11338;SDS011;5724;42.684;23.252;2023-01-29T01:35:05;7.03;;;6.43;;
11338;SDS011;5724;42.684;23.252;2023-01-29T01:37:31;6.73;;;5.43;;
11338;SDS011;5724;42.684;23.252;2023-01-29T01:39:57;4.63;;;4.30;;
11338;SDS011;5724;42.684;23.252;2023-01-29T01:42:27;7.90;;;6.77;;
11338;SDS011;5724;42.684;23.252;2023-01-29T01:44:58;7.93;;;5.20;;
11338;SDS011;5724;42.684;23.252;2023-01-29T01:47:37;4.70;;;3.97;;
11338;SDS011;5724;42.684;23.252;2023-01-29T01:50:09;5.03;;;4.63;;
11338;SDS011;5724;42.684;23.252;2023-01-29T01:52:40;5.17;;;4.67;;
11338;SDS011;5724;42.684;23.252;2023-01-29T01:55:12;4.80;;;4.30;;
11338;SDS011;5724;42.684;23.252;2023-01-29T01:57:41;5.80;;;5.30;;
11338;SDS011;5724;42.684;23.252;2023-01-29T02:00:11;11.00;;;9.33;;
11338;SDS011;5724;42.684;23.252;2023-01-29T02:02:41;14.00;;;10.53;;
11338;SDS011;5724;42.684;23.252;2023-01-29T02:05:28;11.27;;;9.87;;
11338;SDS011;5724;42.684;23.252;2023-01-29T02:08:17;11.30;;;10.10;;
11338;SDS011;5724;42.684;23.252;2023-01-29T02:11:07;11.60;;;9.97;;
11338;SDS011;5724;42.684;23.252;2023-01-29T02:13:32;5.03;;;4.57;;
11338;SDS011;5724;42.684;23.252;2023-01-29T02:15:58;4.97;;;4.57;;
11338;SDS011;5724;42.684;23.252;2023-01-29T02:18:23;4.73;;;4.30;;
11338;SDS011;5724;42.684;23.252;2023-01-29T02:37:01;6.63;;;6.00;;
11338;SDS011;5724;42.684;23.252;2023-01-29T02:42:23;5.87;;;5.27;;
11338;SDS011;5724;42.684;23.252;2023-01-29T02:47:32;4.63;;;4.23;;
11338;SDS011;5724;42.684;23.252;2023-01-29T02:55:23;3.87;;;3.60;;
11338;SDS011;5724;42.684;23.252;2023-01-29T02:57:56;3.27;;;3.07;;
11338;SDS011;5724;42.684;23.252;2023-01-29T03:00:32;5.23;;;4.83;;
11338;SDS011;5724;42.684;23.252;2023-01-29T03:03:03;3.77;;;3.47;;
11338;SDS011;5724;42.684;23.252;2023-01-29T03:05:36;5.73;;;5.07;;
11338;SDS011;5724;42.684;23.252;2023-01-29T03:08:08;12.53;;;9.57;;
11338;SDS011;5724;42.684;23.252;2023-01-29T03:10:42;12.10;;;10.83;;
11338;SDS011;5724;42.684;23.252;2023-01-29T03:13:17;12.07;;;10.83;;
11338;SDS011;5724;42.684;23.252;2023-01-29T03:15:51;12.23;;;10.93;;
11338;SDS011;5724;42.684;23.252;2023-01-29T03:18:26;13.23;;;10.50;;
11338;SDS011;5724;42.684;23.252;2023-01-29T03:20:58;10.23;;;6.23;;
11338;SDS011;5724;42.684;23.252;2023-01-29T03:23:48;4.90;;;3.20;;
11338;SDS011;5724;42.684;23.252;2023-01-29T03:26:32;3.83;;;3.57;;
11338;SDS011;5724;42.684;23.252;2023-01-29T03:29:16;2.63;;;2.43;;
11338;SDS011;5724;42.684;23.252;2023-01-29T03:32:00;4.33;;;3.50;;
11338;SDS011;5724;42.684;23.252;2023-01-29T03:34:32;3.77;;;3.47;;
11338;SDS011;5724;42.684;23.252;2023-01-29T03:37:10;3.97;;;2.53;;
11338;SDS011;5724;42.684;23.252;2023-01-29T03:39:59;3.23;;;2.93;;
11338;SDS011;5724;42.684;23.252;2023-01-29T03:42:34;3.57;;;3.00;;
11338;SDS011;5724;42.684;23.252;2023-01-29T03:45:34;3.20;;;3.00;;
11338;SDS011;5724;42.684;23.252;2023-01-29T03:56:14;3.87;;;3.47;;
11338;SDS011;5724;42.684;23.252;2023-01-29T04:01:54;2.50;;;2.33;;
11338;SDS011;5724;42.684;23.252;2023-01-29T04:04:28;7.40;;;6.87;;
11338;SDS011;5724;42.684;23.252;2023-01-29T04:06:59;8.57;;;7.47;;
11338;SDS011;5724;42.684;23.252;2023-01-29T04:09:33;8.70;;;7.90;;
11338;SDS011;5724;42.684;23.252;2023-01-29T04:12:09;8.13;;;7.47;;
11338;SDS011;5724;42.684;23.252;2023-01-29T04:14:37;7.00;;;6.50;;
11338;SDS011;5724;42.684;23.252;2023-01-29T04:17:17;7.40;;;6.80;;
11338;SDS011;5724;42.684;23.252;2023-01-29T04:19:47;3.30;;;3.10;;
11338;SDS011;5724;42.684;23.252;2023-01-29T04:25:14;2.27;;;2.17;;
11338;SDS011;5724;42.684;23.252;2023-01-29T04:30:38;2.67;;;2.57;;
11338;SDS011;5724;42.684;23.252;2023-01-29T04:42:36;3.40;;;3.17;;
11338;SDS011;5724;42.684;23.252;2023-01-29T04:48:05;2.20;;;2.10;;
11338;SDS011;5724;42.684;23.252;2023-01-29T04:50:45;3.90;;;3.17;;
11338;SDS011;5724;42.684;23.252;2023-01-29T04:56:06;1.70;;;1.63;;
11338;SDS011;5724;42.684;23.252;2023-01-29T04:58:46;7.27;;;6.60;;
11338;SDS011;5724;42.684;23.252;2023-01-29T05:01:19;7.30;;;6.73;;
11338;SDS011;5724;42.684;23.252;2023-01-29T05:03:49;7.43;;;6.83;;
11338;SDS011;5724;42.684;23.252;2023-01-29T05:06:18;7.70;;;7.00;;
11338;SDS011;5724;42.684;23.252;2023-01-29T05:08:45;6.17;;;5.77;;
11338;SDS011;5724;42.684;23.252;2023-01-29T05:11:14;2.37;;;2.27;;
11338;SDS011;5724;42.684;23.252;2023-01-29T05:13:42;6.00;;;2.47;;
11338;SDS011;5724;42.684;23.252;2023-01-29T05:16:16;1.80;;;1.70;;
11338;SDS011;5724;42.684;23.252;2023-01-29T05:18:46;3.67;;;3.40;;
11338;SDS011;5724;42.684;23.252;2023-01-29T05:21:12;2.97;;;2.77;;
11338;SDS011;5724;42.684;23.252;2023-01-29T05:23:38;2.13;;;1.87;;
11338;SDS011;5724;42.684;23.252;2023-01-29T05:26:04;3.40;;;3.17;;
11338;SDS011;5724;42.684;23.252;2023-01-29T05:28:30;2.97;;;2.77;;
11338;SDS011;5724;42.684;23.252;2023-01-29T05:30:55;2.23;;;2.13;;
11338;SDS011;5724;42.684;23.252;2023-01-29T05:33:22;3.13;;;2.90;;
11338;SDS011;5724;42.684;23.252;2023-01-29T05:35:49;2.70;;;2.43;;
11338;SDS011;5724;42.684;23.252;2023-01-29T05:38:16;2.47;;;1.37;;
11338;SDS011;5724;42.684;23.252;2023-01-29T05:40:42;2.17;;;1.93;;
11338;SDS011;5724;42.684;23.252;2023-01-29T05:43:18;1.37;;;0.90;;
11338;SDS011;5724;42.684;23.252;2023-01-29T05:45:55;2.57;;;2.47;;
11338;SDS011;5724;42.684;23.252;2023-01-29T05:48:23;3.10;;;2.90;;
11338;SDS011;5724;42.684;23.252;2023-01-29T05:50:49;3.60;;;3.30;;
11338;SDS011;5724;42.684;23.252;2023-01-29T05:53:14;3.40;;;2.60;;
11338;SDS011;5724;42.684;23.252;2023-01-29T05:55:43;3.03;;;2.70;;
11338;SDS011;5724;42.684;23.252;2023-01-29T05:58:10;5.50;;;2.70;;
11338;SDS011;5724;42.684;23.252;2023-01-29T06:00:35;2.80;;;2.60;;
11338;SDS011;5724;42.684;23.252;2023-01-29T06:03:01;4.33;;;3.93;;
11338;SDS011;5724;42.684;23.252;2023-01-29T06:05:27;3.60;;;3.20;;
11338;SDS011;5724;42.684;23.252;2023-01-29T06:07:52;4.77;;;4.37;;
11338;SDS011;5724;42.684;23.252;2023-01-29T06:10:18;3.80;;;2.83;;
11338;SDS011;5724;42.684;23.252;2023-01-29T06:12:43;3.30;;;3.10;;
11338;SDS011;5724;42.684;23.252;2023-01-29T06:15:09;3.70;;;3.40;;
11338;SDS011;5724;42.684;23.252;2023-01-29T06:17:36;3.67;;;3.47;;
11338;SDS011;5724;42.684;23.252;2023-01-29T06:20:02;4.60;;;4.20;;
11338;SDS011;5724;42.684;23.252;2023-01-29T06:22:29;5.63;;;4.10;;
11338;SDS011;5724;42.684;23.252;2023-01-29T06:24:54;4.23;;;3.77;;
11338;SDS011;5724;42.684;23.252;2023-01-29T06:27:20;4.10;;;3.77;;
11338;SDS011;5724;42.684;23.252;2023-01-29T06:29:45;3.57;;;3.40;;
11338;SDS011;5724;42.684;23.252;2023-01-29T06:32:11;4.30;;;3.90;;
11338;SDS011;5724;42.684;23.252;2023-01-29T06:34:36;4.37;;;4.03;;
11338;SDS011;5724;42.684;23.252;2023-01-29T06:37:20;4.87;;;4.37;;
11338;SDS011;5724;42.684;23.252;2023-01-29T06:39:46;3.83;;;3.50;;
11338;SDS011;5724;42.684;23.252;2023-01-29T06:42:11;6.27;;;5.47;;
11338;SDS011;5724;42.684;23.252;2023-01-29T06:44:37;9.23;;;8.17;;
11338;SDS011;5724;42.684;23.252;2023-01-29T06:47:02;10.83;;;9.63;;
11338;SDS011;5724;42.684;23.252;2023-01-29T06:49:28;10.33;;;9.43;;
11338;SDS011;5724;42.684;23.252;2023-01-29T06:51:53;10.30;;;9.30;;
11338;SDS011;5724;42.684;23.252;2023-01-29T06:54:18;10.13;;;9.10;;
11338;SDS011;5724;42.684;23.252;2023-01-29T06:56:44;10.53;;;9.57;;
11338;SDS011;5724;42.684;23.252;2023-01-29T06:59:10;9.63;;;8.73;;
11338;SDS011;5724;42.684;23.252;2023-01-29T07:01:39;3.70;;;3.27;;
11338;SDS011;5724;42.684;23.252;2023-01-29T07:04:06;4.17;;;3.83;;
11338;SDS011;5724;42.684;23.252;2023-01-29T07:06:32;4.83;;;3.33;;
11338;SDS011;5724;42.684;23.252;2023-01-29T07:08:58;4.00;;;3.70;;
11338;SDS011;5724;42.684;23.252;2023-01-29T07:11:24;2.00;;;1.90;;
11338;SDS011;5724;42.684;23.252;2023-01-29T07:13:49;5.80;;;4.97;;
11338;SDS011;5724;42.684;23.252;2023-01-29T07:16:14;4.67;;;3.73;;
11338;SDS011;5724;42.684;23.252;2023-01-29T07:18:40;4.50;;;4.10;;
11338;SDS011;5724;42.684;23.252;2023-01-29T07:21:05;6.93;;;5.10;;
11338;SDS011;5724;42.684;23.252;2023-01-29T07:23:32;7.63;;;6.83;;
11338;SDS011;5724;42.684;23.252;2023-01-29T07:26:02;4.33;;;3.93;;
11338;SDS011;5724;42.684;23.252;2023-01-29T07:28:28;6.13;;;4.93;;
11338;SDS011;5724;42.684;23.252;2023-01-29T07:30:58;6.07;;;5.00;;
11338;SDS011;5724;42.684;23.252;2023-01-29T07:33:23;8.43;;;6.10;;
11338;SDS011;5724;42.684;23.252;2023-01-29T07:35:49;7.07;;;5.27;;
11338;SDS011;5724;42.684;23.252;2023-01-29T07:38:14;10.97;;;6.90;;
11338;SDS011;5724;42.684;23.252;2023-01-29T07:40:40;7.67;;;5.67;;
11338;SDS011;5724;42.684;23.252;2023-01-29T07:43:06;6.33;;;5.83;;
11338;SDS011;5724;42.684;23.252;2023-01-29T07:45:35;7.53;;;6.80;;
11338;SDS011;5724;42.684;23.252;2023-01-29T07:48:02;7.20;;;6.47;;
11338;SDS011;5724;42.684;23.252;2023-01-29T07:50:29;7.33;;;6.63;;
11338;SDS011;5724;42.684;23.252;2023-01-29T07:52:55;8.60;;;5.23;;
11338;SDS011;5724;42.684;23.252;2023-01-29T07:55:21;4.13;;;3.93;;
11338;SDS011;5724;42.684;23.252;2023-01-29T07:57:46;5.37;;;4.80;;
11338;SDS011;5724;42.684;23.252;2023-01-29T08:00:12;6.20;;;5.70;;
11338;SDS011;5724;42.684;23.252;2023-01-29T08:02:39;4.27;;;3.90;;
11338;SDS011;5724;42.684;23.252;2023-01-29T08:05:05;5.80;;;4.90;;
11338;SDS011;5724;42.684;23.252;2023-01-29T08:07:31;6.60;;;6.00;;
11338;SDS011;5724;42.684;23.252;2023-01-29T08:09:57;4.30;;;4.03;;
11338;SDS011;5724;42.684;23.252;2023-01-29T08:12:22;3.23;;;3.00;;
11338;SDS011;5724;42.684;23.252;2023-01-29T08:14:48;6.67;;;4.87;;
11338;SDS011;5724;42.684;23.252;2023-01-29T08:17:14;8.23;;;5.83;;
11338;SDS011;5724;42.684;23.252;2023-01-29T08:19:40;4.73;;;4.40;;
11338;SDS011;5724;42.684;23.252;2023-01-29T08:22:05;2.33;;;2.20;;
11338;SDS011;5724;42.684;23.252;2023-01-29T08:24:31;5.07;;;4.50;;
11338;SDS011;5724;42.684;23.252;2023-01-29T08:26:57;4.87;;;4.57;;
11338;SDS011;5724;42.684;23.252;2023-01-29T08:29:23;4.53;;;4.03;;
11338;SDS011;5724;42.684;23.252;2023-01-29T08:31:48;18.53;;;4.83;;
11338;SDS011;5724;42.684;23.252;2023-01-29T08:34:14;7.23;;;5.57;;
11338;SDS011;5724;42.684;23.252;2023-01-29T08:36:39;4.83;;;4.40;;
11338;SDS011;5724;42.684;23.252;2023-01-29T08:39:05;5.23;;;4.83;;
11338;SDS011;5724;42.684;23.252;2023-01-29T08:41:30;6.03;;;4.93;;
11338;SDS011;5724;42.684;23.252;2023-01-29T08:43:56;4.50;;;4.10;;
11338;SDS011;5724;42.684;23.252;2023-01-29T08:46:22;7.47;;;6.80;;
11338;SDS011;5724;42.684;23.252;2023-01-29T08:48:48;4.67;;;4.37;;
11338;SDS011;5724;42.684;23.252;2023-01-29T08:51:13;10.87;;;7.17;;
11338;SDS011;5724;42.684;23.252;2023-01-29T08:53:39;7.83;;;6.80;;
11338;SDS011;5724;42.684;23.252;2023-01-29T08:56:04;5.53;;;5.13;;
11338;SDS011;5724;42.684;23.252;2023-01-29T08:58:30;5.17;;;4.67;;
11338;SDS011;5724;42.684;23.252;2023-01-29T09:00:55;5.97;;;5.37;;
11338;SDS011;5724;42.684;23.252;2023-01-29T09:03:21;5.90;;;5.40;;
11338;SDS011;5724;42.684;23.252;2023-01-29T09:05:46;5.40;;;4.90;;
11338;SDS011;5724;42.684;23.252;2023-01-29T09:08:12;6.97;;;6.13;;
11338;SDS011;5724;42.684;23.252;2023-01-29T09:10:39;8.63;;;6.73;;
11338;SDS011;5724;42.684;23.252;2023-01-29T09:13:05;6.17;;;5.67;;
11338;SDS011;5724;42.684;23.252;2023-01-29T09:15:30;8.00;;;7.10;;
11338;SDS011;5724;42.684;23.252;2023-01-29T09:17:56;6.83;;;3.70;;
11338;SDS011;5724;42.684;23.252;2023-01-29T09:20:21;5.00;;;4.37;;
11338;SDS011;5724;42.684;23.252;2023-01-29T09:22:46;6.60;;;4.10;;
11338;SDS011;5724;42.684;23.252;2023-01-29T09:25:13;8.77;;;7.07;;
11338;SDS011;5724;42.684;23.252;2023-01-29T09:27:38;6.60;;;6.00;;
11338;SDS011;5724;42.684;23.252;2023-01-29T09:30:04;7.60;;;6.87;;
11338;SDS011;5724;42.684;23.252;2023-01-29T09:32:31;9.97;;;7.87;;
11338;SDS011;5724;42.684;23.252;2023-01-29T09:34:58;9.60;;;7.57;;
11338;SDS011;5724;42.684;23.252;2023-01-29T09:37:23;5.20;;;4.60;;
11338;SDS011;5724;42.684;23.252;2023-01-29T09:39:49;8.73;;;6.60;;
11338;SDS011;5724;42.684;23.252;2023-01-29T09:42:19;8.50;;;7.63;;
11338;SDS011;5724;42.684;23.252;2023-01-29T09:47:38;9.87;;;7.63;;
11338;SDS011;5724;42.684;23.252;2023-01-29T09:50:04;7.87;;;7.07;;
11338;SDS011;5724;42.684;23.252;2023-01-29T09:52:50;6.87;;;6.27;;
11338;SDS011;5724;42.684;23.252;2023-01-29T09:58:02;6.50;;;5.90;;
11338;SDS011;5724;42.684;23.252;2023-01-29T10:03:06;8.40;;;7.07;;
11338;SDS011;5724;42.684;23.252;2023-01-29T10:14:18;6.10;;;4.77;;
11338;SDS011;5724;42.684;23.252;2023-01-29T10:22:30;11.77;;;8.37;;
11338;SDS011;5724;42.684;23.252;2023-01-29T10:25:26;11.97;;;8.60;;
11338;SDS011;5724;42.684;23.252;2023-01-29T10:27:52;11.47;;;8.50;;
11338;SDS011;5724;42.684;23.252;2023-01-29T10:32:46;11.83;;;8.77;;
11338;SDS011;5724;42.684;23.252;2023-01-29T10:35:23;11.37;;;9.60;;
11338;SDS011;5724;42.684;23.252;2023-01-29T10:37:55;7.57;;;6.53;;
11338;SDS011;5724;42.684;23.252;2023-01-29T10:40:28;13.47;;;8.97;;
11338;SDS011;5724;42.684;23.252;2023-01-29T10:43:08;10.13;;;8.10;;
11338;SDS011;5724;42.684;23.252;2023-01-29T10:45:46;9.90;;;7.73;;
11338;SDS011;5724;42.684;23.252;2023-01-29T10:54:17;12.87;;;7.53;;
11338;SDS011;5724;42.684;23.252;2023-01-29T10:57:12;10.27;;;8.27;;
11338;SDS011;5724;42.684;23.252;2023-01-29T11:02:51;11.83;;;7.20;;
11338;SDS011;5724;42.684;23.252;2023-01-29T11:08:06;10.80;;;8.80;;
11338;SDS011;5724;42.684;23.252;2023-01-29T11:10:37;8.93;;;7.00;;
11338;SDS011;5724;42.684;23.252;2023-01-29T11:13:07;8.87;;;5.00;;
11338;SDS011;5724;42.684;23.252;2023-01-29T11:15:38;17.70;;;9.77;;
11338;SDS011;5724;42.684;23.252;2023-01-29T11:18:08;7.27;;;6.43;;
11338;SDS011;5724;42.684;23.252;2023-01-29T11:20:39;7.83;;;6.13;;
11338;SDS011;5724;42.684;23.252;2023-01-29T11:23:25;10.27;;;8.90;;
11338;SDS011;5724;42.684;23.252;2023-01-29T11:25:56;11.20;;;7.93;;
11338;SDS011;5724;42.684;23.252;2023-01-29T11:31:21;12.10;;;6.00;;
11338;SDS011;5724;42.684;23.252;2023-01-29T11:34:01;11.77;;;8.90;;
11338;SDS011;5724;42.684;23.252;2023-01-29T11:36:38;11.57;;;8.00;;
11338;SDS011;5724;42.684;23.252;2023-01-29T11:41:39;9.67;;;6.90;;
11338;SDS011;5724;42.684;23.252;2023-01-29T11:44:17;7.80;;;4.63;;
11338;SDS011;5724;42.684;23.252;2023-01-29T11:46:51;14.90;;;8.97;;
11338;SDS011;5724;42.684;23.252;2023-01-29T11:49:20;10.80;;;8.57;;
11338;SDS011;5724;42.684;23.252;2023-01-29T11:51:54;8.63;;;7.43;;
11338;SDS011;5724;42.684;23.252;2023-01-29T11:54:21;4.80;;;4.27;;
11338;SDS011;5724;42.684;23.252;2023-01-29T11:56:52;11.43;;;7.77;;
11338;SDS011;5724;42.684;23.252;2023-01-29T11:59:36;10.73;;;8.57;;
11338;SDS011;5724;42.684;23.252;2023-01-29T12:02:13;6.10;;;5.50;;
11338;SDS011;5724;42.684;23.252;2023-01-29T12:04:45;9.53;;;7.10;;
11338;SDS011;5724;42.684;23.252;2023-01-29T12:07:12;11.27;;;5.43;;
11338;SDS011;5724;42.684;23.252;2023-01-29T12:09:40;9.50;;;6.83;;
11338;SDS011;5724;42.684;23.252;2023-01-29T12:12:16;8.73;;;7.83;;
11338;SDS011;5724;42.684;23.252;2023-01-29T12:15:00;11.20;;;7.60;;
11338;SDS011;5724;42.684;23.252;2023-01-29T12:17:32;10.87;;;6.50;;
11338;SDS011;5724;42.684;23.252;2023-01-29T12:20:22;9.93;;;7.40;;
11338;SDS011;5724;42.684;23.252;2023-01-29T12:25:33;12.07;;;8.47;;
11338;SDS011;5724;42.684;23.252;2023-01-29T12:28:18;12.27;;;8.43;;
11338;SDS011;5724;42.684;23.252;2023-01-29T12:33:51;13.93;;;10.17;;
11338;SDS011;5724;42.684;23.252;2023-01-29T12:36:35;8.47;;;7.47;;
11338;SDS011;5724;42.684;23.252;2023-01-29T12:39:10;11.23;;;8.53;;
11338;SDS011;5724;42.684;23.252;2023-01-29T12:41:42;8.97;;;7.23;;
11338;SDS011;5724;42.684;23.252;2023-01-29T12:44:38;5.90;;;5.27;;
11338;SDS011;5724;42.684;23.252;2023-01-29T12:50:18;11.30;;;8.77;;
11338;SDS011;5724;42.684;23.252;2023-01-29T12:52:49;10.30;;;6.03;;
11338;SDS011;5724;42.684;23.252;2023-01-29T12:55:44;14.40;;;11.03;;
11338;SDS011;5724;42.684;23.252;2023-01-29T12:58:15;13.57;;;9.73;;
11338;SDS011;5724;42.684;23.252;2023-01-29T13:00:53;17.33;;;11.00;;
11338;SDS011;5724;42.684;23.252;2023-01-29T13:03:28;10.50;;;7.53;;
11338;SDS011;5724;42.684;23.252;2023-01-29T13:05:59;11.07;;;8.10;;
11338;SDS011;5724;42.684;23.252;2023-01-29T13:08:37;11.90;;;9.07;;
11338;SDS011;5724;42.684;23.252;2023-01-29T13:11:08;11.27;;;8.23;;
11338;SDS011;5724;42.684;23.252;2023-01-29T13:13:42;9.73;;;7.90;;
11338;SDS011;5724;42.684;23.252;2023-01-29T13:16:17;15.47;;;9.40;;
11338;SDS011;5724;42.684;23.252;2023-01-29T13:21:24;9.27;;;8.07;;
11338;SDS011;5724;42.684;23.252;2023-01-29T13:24:03;7.27;;;5.80;;
11338;SDS011;5724;42.684;23.252;2023-01-29T13:26:35;6.97;;;6.33;;
11338;SDS011;5724;42.684;23.252;2023-01-29T13:29:01;12.40;;;9.20;;
11338;SDS011;5724;42.684;23.252;2023-01-29T13:31:33;12.70;;;9.97;;
11338;SDS011;5724;42.684;23.252;2023-01-29T13:36:42;7.57;;;6.73;;
11338;SDS011;5724;42.684;23.252;2023-01-29T13:39:15;9.70;;;7.27;;
11338;SDS011;5724;42.684;23.252;2023-01-29T13:41:46;8.07;;;7.03;;
11338;SDS011;5724;42.684;23.252;2023-01-29T13:47:09;18.87;;;12.10;;
11338;SDS011;5724;42.684;23.252;2023-01-29T13:49:42;15.27;;;11.10;;
11338;SDS011;5724;42.684;23.252;2023-01-29T13:54:58;16.90;;;9.40;;
11338;SDS011;5724;42.684;23.252;2023-01-29T13:57:45;11.83;;;8.70;;
11338;SDS011;5724;42.684;23.252;2023-01-29T14:02:45;18.57;;;12.90;;
11338;SDS011;5724;42.684;23.252;2023-01-29T14:10:39;15.27;;;9.63;;
11338;SDS011;5724;42.684;23.252;2023-01-29T14:18:33;14.67;;;9.83;;
11338;SDS011;5724;42.684;23.252;2023-01-29T14:23:35;17.93;;;11.33;;
11338;SDS011;5724;42.684;23.252;2023-01-29T14:26:17;14.37;;;11.00;;
11338;SDS011;5724;42.684;23.252;2023-01-29T14:28:45;13.23;;;10.33;;
11338;SDS011;5724;42.684;23.252;2023-01-29T14:31:40;17.43;;;11.97;;
11338;SDS011;5724;42.684;23.252;2023-01-29T14:34:06;22.93;;;15.60;;
11338;SDS011;5724;42.684;23.252;2023-01-29T14:36:40;21.73;;;12.93;;
11338;SDS011;5724;42.684;23.252;2023-01-29T14:39:50;21.07;;;14.20;;
11338;SDS011;5724;42.684;23.252;2023-01-29T14:42:03;19.90;;;11.87;;
11338;SDS011;5724;42.684;23.252;2023-01-29T14:47:18;19.43;;;11.77;;
11338;SDS011;5724;42.684;23.252;2023-01-29T14:52:52;19.57;;;12.73;;
11338;SDS011;5724;42.684;23.252;2023-01-29T14:55:28;20.97;;;14.00;;
11338;SDS011;5724;42.684;23.252;2023-01-29T14:58:01;21.53;;;14.40;;
11338;SDS011;5724;42.684;23.252;2023-01-29T15:00:33;20.87;;;14.77;;
11338;SDS011;5724;42.684;23.252;2023-01-29T15:03:01;23.67;;;15.80;;
11338;SDS011;5724;42.684;23.252;2023-01-29T15:05:35;24.40;;;16.00;;
11338;SDS011;5724;42.684;23.252;2023-01-29T15:08:07;23.73;;;15.00;;
11338;SDS011;5724;42.684;23.252;2023-01-29T15:10:43;22.50;;;15.30;;
11338;SDS011;5724;42.684;23.252;2023-01-29T15:13:20;22.37;;;15.70;;
11338;SDS011;5724;42.684;23.252;2023-01-29T15:16:12;19.93;;;14.50;;
11338;SDS011;5724;42.684;23.252;2023-01-29T15:18:42;24.87;;;16.00;;
11338;SDS011;5724;42.684;23.252;2023-01-29T15:21:12;18.80;;;13.27;;
11338;SDS011;5724;42.684;23.252;2023-01-29T15:23:39;22.30;;;14.27;;
11338;SDS011;5724;42.684;23.252;2023-01-29T15:26:09;23.10;;;15.20;;
11338;SDS011;5724;42.684;23.252;2023-01-29T15:28:52;24.70;;;15.97;;
11338;SDS011;5724;42.684;23.252;2023-01-29T15:31:20;20.37;;;14.40;;
11338;SDS011;5724;42.684;23.252;2023-01-29T15:33:45;18.07;;;12.90;;
11338;SDS011;5724;42.684;23.252;2023-01-29T15:36:17;23.43;;;15.20;;
11338;SDS011;5724;42.684;23.252;2023-01-29T15:38:46;23.93;;;16.17;;
11338;SDS011;5724;42.684;23.252;2023-01-29T15:41:16;24.20;;;16.77;;
11338;SDS011;5724;42.684;23.252;2023-01-29T15:43:47;23.10;;;16.50;;
11338;SDS011;5724;42.684;23.252;2023-01-29T15:48:54;18.77;;;14.10;;
11338;SDS011;5724;42.684;23.252;2023-01-29T15:51:21;22.23;;;14.93;;
11338;SDS011;5724;42.684;23.252;2023-01-29T15:53:53;22.20;;;14.80;;
11338;SDS011;5724;42.684;23.252;2023-01-29T15:56:21;16.00;;;11.97;;
11338;SDS011;5724;42.684;23.252;2023-01-29T15:58:53;21.67;;;13.87;;
11338;SDS011;5724;42.684;23.252;2023-01-29T16:01:24;21.73;;;15.87;;
11338;SDS011;5724;42.684;23.252;2023-01-29T16:03:50;19.87;;;14.30;;
11338;SDS011;5724;42.684;23.252;2023-01-29T16:06:16;20.30;;;13.57;;
11338;SDS011;5724;42.684;23.252;2023-01-29T16:08:43;24.80;;;16.70;;
11338;SDS011;5724;42.684;23.252;2023-01-29T16:11:14;23.17;;;13.70;;
11338;SDS011;5724;42.684;23.252;2023-01-29T16:13:42;14.23;;;7.90;;
11338;SDS011;5724;42.684;23.252;2023-01-29T16:18:40;14.03;;;6.77;;
11338;SDS011;5724;42.684;23.252;2023-01-29T16:23:43;12.40;;;7.20;;
11338;SDS011;5724;42.684;23.252;2023-01-29T16:26:19;14.30;;;9.00;;
11338;SDS011;5724;42.684;23.252;2023-01-29T16:28:48;8.80;;;7.23;;
11338;SDS011;5724;42.684;23.252;2023-01-29T16:31:21;9.30;;;6.87;;
11338;SDS011;5724;42.684;23.252;2023-01-29T16:33:49;10.13;;;6.37;;
11338;SDS011;5724;42.684;23.252;2023-01-29T16:36:33;10.77;;;7.97;;
11338;SDS011;5724;42.684;23.252;2023-01-29T16:38:59;15.43;;;10.10;;
11338;SDS011;5724;42.684;23.252;2023-01-29T16:41:33;6.73;;;5.87;;
11338;SDS011;5724;42.684;23.252;2023-01-29T16:44:29;17.83;;;12.20;;
11338;SDS011;5724;42.684;23.252;2023-01-29T16:46:58;9.67;;;5.87;;
11338;SDS011;5724;42.684;23.252;2023-01-29T16:49:51;25.37;;;15.90;;
11338;SDS011;5724;42.684;23.252;2023-01-29T16:54:49;28.73;;;19.10;;
11338;SDS011;5724;42.684;23.252;2023-01-29T16:57:16;27.07;;;18.60;;
11338;SDS011;5724;42.684;23.252;2023-01-29T16:59:45;25.17;;;18.70;;
11338;SDS011;5724;42.684;23.252;2023-01-29T17:02:22;28.10;;;19.83;;
11338;SDS011;5724;42.684;23.252;2023-01-29T17:04:51;25.20;;;18.33;;
11338;SDS011;5724;42.684;23.252;2023-01-29T17:07:20;20.90;;;16.03;;
11338;SDS011;5724;42.684;23.252;2023-01-29T17:09:48;21.17;;;17.00;;
11338;SDS011;5724;42.684;23.252;2023-01-29T17:12:21;22.27;;;15.90;;
11338;SDS011;5724;42.684;23.252;2023-01-29T17:14:54;20.03;;;14.33;;
11338;SDS011;5724;42.684;23.252;2023-01-29T17:17:26;7.33;;;6.40;;
11338;SDS011;5724;42.684;23.252;2023-01-29T17:19:53;7.30;;;4.23;;
11338;SDS011;5724;42.684;23.252;2023-01-29T17:22:18;5.67;;;4.20;;
11338;SDS011;5724;42.684;23.252;2023-01-29T17:24:44;6.60;;;4.57;;
11338;SDS011;5724;42.684;23.252;2023-01-29T17:27:17;9.93;;;4.80;;
11338;SDS011;5724;42.684;23.252;2023-01-29T17:29:44;8.97;;;6.03;;
11338;SDS011;5724;42.684;23.252;2023-01-29T17:32:10;8.70;;;7.10;;
11338;SDS011;5724;42.684;23.252;2023-01-29T17:34:36;6.13;;;5.60;;